Time;durP1;ratioP1;P1;durP2;ratioP2;P2;SDS_P1;SDS_P2;PMS_P1;PMS_P2;Temp;Humidity;BMP_temperature;BMP_pressure;BME280_temperature;BME280_humidity;BME280_pressure;Samples;Min_cycle;Max_cycle;Signal;HPM_P1;HPM_P2
2023/11/01 00:00:43;;;;;;;;;5.00;2.00;;;;;;;;5070489;28;8783;-87
2023/11/01 00:03:12;;;;;;;;;4.25;2.00;;;;;;;;5069460;28;8985;-89
2023/11/01 00:05:39;;;;;;;;;2.00;2.00;;;;;;;;5069556;28;9685;-81
2023/11/01 00:08:07;;;;;;;;;2.00;2.00;;;;;;;;5068075;28;8843;-87
2023/11/01 00:10:35;;;;;;;;;2.25;2.25;;;;;;;;5068822;28;8855;-81
2023/11/01 00:13:02;;;;;;;;;2.00;1.25;;;;;;;;5066808;28;8865;-82
2023/11/01 00:15:30;;;;;;;;;6.00;2.25;;;;;;;;5068887;28;8854;-87
2023/11/01 00:17:59;;;;;;;;;3.50;2.00;;;;;;;;5068163;28;8855;-86
2023/11/01 00:20:26;;;;;;;;;3.25;2.00;;;;;;;;5066225;28;8924;-85
2023/11/01 00:22:53;;;;;;;;;1.00;1.00;;;;;;;;5070560;28;8851;-83
2023/11/01 00:25:22;;;;;;;;;1.75;1.00;;;;;;;;5073087;28;8866;-84
2023/11/01 00:27:52;;;;;;;;;2.00;2.00;;;;;;;;5069575;28;9361;-80
2023/11/01 00:30:22;;;;;;;;;1.75;1.75;;;;;;;;5068876;28;8931;-82
2023/11/01 00:32:51;;;;;;;;;3.00;1.25;;;;;;;;5069211;28;8855;-84
2023/11/01 00:35:21;;;;;;;;;3.00;1.25;;;;;;;;5069051;28;8859;-92
2023/11/01 00:37:49;;;;;;;;;3.00;2.00;;;;;;;;5068914;28;8888;-83
2023/11/01 00:40:16;;;;;;;;;2.50;2.50;;;;;;;;5065960;28;8961;-82
2023/11/01 00:42:45;;;;;;;;;7.00;4.25;;;;;;;;5066507;28;8861;-88
2023/11/01 00:45:17;;;;;;;;;4.00;2.50;;;;;;;;5067338;28;8847;-88
2023/11/01 00:47:44;;;;;;;;;1.00;1.00;;;;;;;;5059692;28;8895;-85
2023/11/01 00:50:13;;;;;;;;;3.50;1.75;;;;;;;;5067561;28;8853;-87
2023/11/01 00:52:45;;;;;;;;;3.00;1.50;;;;;;;;5059093;28;8923;-87
2023/11/01 00:55:16;;;;;;;;;4.00;2.00;;;;;;;;5061668;28;8902;-83
2023/11/01 00:57:46;;;;;;;;;3.50;2.25;;;;;;;;5064190;28;8865;-90
2023/11/01 01:00:16;;;;;;;;;2.00;2.00;;;;;;;;5062550;28;8883;-87
2023/11/01 01:02:44;;;;;;;;;2.00;2.00;;;;;;;;5068631;28;8993;-88
2023/11/01 01:05:11;;;;;;;;;4.00;1.50;;;;;;;;5062380;28;8877;-86
2023/11/01 01:07:39;;;;;;;;;3.00;3.00;;;;;;;;5063755;28;8855;-81
2023/11/01 01:10:07;;;;;;;;;2.00;2.00;;;;;;;;5062177;28;8867;-81
2023/11/01 01:12:34;;;;;;;;;0.75;0.75;;;;;;;;5060161;28;8989;-82
2023/11/01 01:15:01;;;;;;;;;4.00;3.00;;;;;;;;5061422;28;8888;-81
2023/11/01 01:17:30;;;;;;;;;2.00;2.00;;;;;;;;5059570;28;8855;-82
2023/11/01 01:19:57;;;;;;;;;2.00;2.00;;;;;;;;5060328;28;8973;-81
2023/11/01 01:22:24;;;;;;;;;2.50;2.50;;;;;;;;5060056;28;8847;-84
2023/11/01 01:24:52;;;;;;;;;2.00;2.00;;;;;;;;5069038;28;8869;-81
2023/11/01 01:27:22;;;;;;;;;3.25;3.00;;;;;;;;5066253;28;8977;-82
2023/11/01 01:29:52;;;;;;;;;2.25;2.00;;;;;;;;5066943;28;8845;-83
2023/11/01 01:32:20;;;;;;;;;3.25;3.00;;;;;;;;5068304;28;9597;-83
2023/11/01 01:34:52;;;;;;;;;3.00;1.00;;;;;;;;5067527;28;8865;-82
2023/11/01 01:37:21;;;;;;;;;6.50;3.00;;;;;;;;5066946;28;8861;-82
2023/11/01 01:39:49;;;;;;;;;2.00;2.00;;;;;;;;5069491;28;8855;-82
2023/11/01 01:42:16;;;;;;;;;3.00;1.75;;;;;;;;5074806;28;8977;-86
2023/11/01 01:44:43;;;;;;;;;3.75;2.00;;;;;;;;5069358;28;8851;-83
2023/11/01 01:47:11;;;;;;;;;3.25;2.25;;;;;;;;5071670;28;8865;-86
2023/11/01 01:49:38;;;;;;;;;2.75;2.00;;;;;;;;5071845;28;8870;-88
2023/11/01 01:52:07;;;;;;;;;1.75;1.75;;;;;;;;5072562;28;8889;-88
2023/11/01 01:54:35;;;;;;;;;3.00;1.25;;;;;;;;5072516;28;9585;-84
2023/11/01 01:57:02;;;;;;;;;1.25;1.25;;;;;;;;5061745;28;8871;-88
2023/11/01 01:59:29;;;;;;;;;3.00;1.00;;;;;;;;5071789;28;8892;-89
2023/11/01 02:01:57;;;;;;;;;4.75;3.00;;;;;;;;5071462;28;8779;-87
2023/11/01 02:04:26;;;;;;;;;3.00;1.00;;;;;;;;5070427;28;8883;-85
2023/11/01 02:06:53;;;;;;;;;4.25;2.50;;;;;;;;5064646;28;8865;-81
2023/11/01 02:09:22;;;;;;;;;2.00;2.00;;;;;;;;5062673;28;8869;-87
2023/11/01 02:11:51;;;;;;;;;4.50;3.00;;;;;;;;5056803;28;8866;-89
2023/11/01 02:14:21;;;;;;;;;4.00;3.00;;;;;;;;5068232;28;8854;-85
2023/11/01 02:16:49;;;;;;;;;4.00;2.00;;;;;;;;5052959;28;8841;-88
2023/11/01 02:19:18;;;;;;;;;0.00;0.00;;;;;;;;5070655;28;8993;-88
2023/11/01 02:21:45;;;;;;;;;4.75;3.00;;;;;;;;5072137;28;8863;-83
2023/11/01 02:24:13;;;;;;;;;1.50;1.50;;;;;;;;5070114;28;8857;-87
2023/11/01 02:26:41;;;;;;;;;1.25;1.25;;;;;;;;5071172;28;8855;-87
2023/11/01 02:29:11;;;;;;;;;2.25;2.25;;;;;;;;5071359;28;8851;-86
2023/11/01 02:31:41;;;;;;;;;4.00;2.25;;;;;;;;5070795;28;8784;-95
2023/11/01 02:34:08;;;;;;;;;3.00;1.25;;;;;;;;5070018;28;8943;-89
2023/11/01 02:36:36;;;;;;;;;2.25;0.75;;;;;;;;5070688;28;8871;-85
2023/11/01 02:39:06;;;;;;;;;1.25;1.25;;;;;;;;5068298;28;8855;-84
2023/11/01 02:41:38;;;;;;;;;2.00;2.00;;;;;;;;5064976;28;8853;-90
2023/11/01 02:44:07;;;;;;;;;4.50;2.00;;;;;;;;5065042;28;8869;-89
2023/11/01 02:46:34;;;;;;;;;3.75;2.75;;;;;;;;5071241;28;8874;-88
2023/11/01 02:49:03;;;;;;;;;0.00;0.00;;;;;;;;5072363;28;8847;-83
2023/11/01 02:51:31;;;;;;;;;2.75;2.00;;;;;;;;5072534;28;8879;-82
2023/11/01 02:53:59;;;;;;;;;3.25;2.25;;;;;;;;5070453;28;8890;-82
2023/11/01 02:56:26;;;;;;;;;4.50;1.00;;;;;;;;5058749;28;8859;-87
2023/11/01 02:58:55;;;;;;;;;3.00;1.75;;;;;;;;5069161;28;8855;-84
2023/11/01 03:01:22;;;;;;;;;3.00;1.25;;;;;;;;5070281;28;8819;-83
2023/11/01 03:03:58;;;;;;;;;2.00;2.00;;;;;;;;5067705;28;8881;-84
2023/11/01 03:06:28;;;;;;;;;5.25;2.00;;;;;;;;5068787;28;8912;-82
2023/11/01 03:08:55;;;;;;;;;1.75;1.75;;;;;;;;5068042;28;8892;-83
2023/11/01 03:11:22;;;;;;;;;2.00;2.00;;;;;;;;5070277;28;8889;-82
2023/11/01 03:13:50;;;;;;;;;3.50;3.00;;;;;;;;5068776;28;8855;-83
2023/11/01 03:16:21;;;;;;;;;1.75;1.75;;;;;;;;5059277;28;8865;-82
2023/11/01 03:18:49;;;;;;;;;2.75;2.75;;;;;;;;5069933;28;8878;-83
2023/11/01 03:21:16;;;;;;;;;2.50;1.50;;;;;;;;5072548;28;8889;-82
2023/11/01 03:23:44;;;;;;;;;4.00;2.00;;;;;;;;5074431;28;8862;-82
2023/11/01 03:26:11;;;;;;;;;2.75;1.75;;;;;;;;5073390;28;8961;-82
2023/11/01 03:28:38;;;;;;;;;4.00;1.00;;;;;;;;5071106;28;9641;-83
2023/11/01 03:31:06;;;;;;;;;1.00;1.00;;;;;;;;5073068;28;8779;-83
2023/11/01 03:33:34;;;;;;;;;5.75;2.00;;;;;;;;5068140;28;8932;-84
2023/11/01 03:36:06;;;;;;;;;5.25;2.00;;;;;;;;5068875;28;8905;-84
2023/11/01 03:38:34;;;;;;;;;4.50;2.00;;;;;;;;5068063;28;8859;-85
2023/11/01 03:41:04;;;;;;;;;1.25;1.00;;;;;;;;5067043;28;8862;-84
2023/11/01 03:43:33;;;;;;;;;2.75;2.25;;;;;;;;5057654;28;8993;-83
2023/11/01 03:46:01;;;;;;;;;4.25;2.25;;;;;;;;5066904;28;9096;-83
2023/11/01 03:48:28;;;;;;;;;2.25;2.25;;;;;;;;5069519;28;8894;-85
2023/11/01 03:50:57;;;;;;;;;4.25;2.75;;;;;;;;5068773;28;8851;-83
2023/11/01 03:53:24;;;;;;;;;2.75;2.75;;;;;;;;5066671;28;8846;-85
2023/11/01 03:55:51;;;;;;;;;5.25;3.00;;;;;;;;5066828;28;8821;-83
2023/11/01 03:58:21;;;;;;;;;2.00;1.00;;;;;;;;5069173;28;8913;-86
2023/11/01 04:00:48;;;;;;;;;2.00;2.00;;;;;;;;5068347;28;8795;-83
2023/11/01 04:03:15;;;;;;;;;3.50;1.75;;;;;;;;5059284;28;8853;-82
2023/11/01 04:05:42;;;;;;;;;1.75;1.75;;;;;;;;5065908;28;8877;-82
2023/11/01 04:08:12;;;;;;;;;1.75;1.75;;;;;;;;5068262;28;8870;-84
2023/11/01 04:10:39;;;;;;;;;3.00;1.75;;;;;;;;5067895;28;8925;-82
2023/11/01 04:13:07;;;;;;;;;1.75;1.75;;;;;;;;5068269;28;8855;-83
2023/11/01 04:15:34;;;;;;;;;2.00;2.00;;;;;;;;5067084;28;8847;-82
2023/11/01 04:18:01;;;;;;;;;3.00;2.00;;;;;;;;5068642;28;9610;-85
2023/11/01 04:20:29;;;;;;;;;3.50;2.25;;;;;;;;5067717;28;8997;-82
2023/11/01 04:22:56;;;;;;;;;1.75;1.75;;;;;;;;5067493;28;8881;-83
2023/11/01 04:25:25;;;;;;;;;5.00;2.00;;;;;;;;5066943;28;8982;-84
2023/11/01 04:27:52;;;;;;;;;2.50;2.50;;;;;;;;5067529;28;8933;-85
2023/11/01 04:30:20;;;;;;;;;3.00;2.00;;;;;;;;5066380;28;8839;-83
2023/11/01 04:32:49;;;;;;;;;2.50;2.50;;;;;;;;5068473;28;8863;-82
2023/11/01 04:35:16;;;;;;;;;4.00;2.25;;;;;;;;5067990;28;8866;-82
2023/11/01 04:37:44;;;;;;;;;4.00;3.00;;;;;;;;5066750;28;8862;-84
2023/11/01 04:40:13;;;;;;;;;2.25;2.25;;;;;;;;5068097;28;8866;-84
2023/11/01 04:42:42;;;;;;;;;2.00;2.00;;;;;;;;5068309;28;8847;-84
2023/11/01 04:45:11;;;;;;;;;4.00;3.50;;;;;;;;5066482;28;8858;-83
2023/11/01 04:47:41;;;;;;;;;4.50;3.00;;;;;;;;5066962;28;9638;-83
2023/11/01 04:50:09;;;;;;;;;1.50;0.00;;;;;;;;5057553;28;9727;-84
2023/11/01 04:52:36;;;;;;;;;4.00;2.25;;;;;;;;5066086;28;8877;-82
2023/11/01 04:55:05;;;;;;;;;3.75;3.00;;;;;;;;5067424;28;8851;-82
2023/11/01 04:57:32;;;;;;;;;2.25;2.25;;;;;;;;5065122;28;8841;-85
2023/11/01 05:00:03;;;;;;;;;3.00;3.00;;;;;;;;5067912;28;8898;-83
2023/11/01 05:02:30;;;;;;;;;1.25;1.25;;;;;;;;5036771;28;8838;-82
2023/11/01 05:04:57;;;;;;;;;4.00;2.00;;;;;;;;5048601;28;8869;-82
2023/11/01 05:07:25;;;;;;;;;2.00;2.00;;;;;;;;5048078;28;8860;-83
2023/11/01 05:09:52;;;;;;;;;5.25;2.50;;;;;;;;5042652;28;8964;-82
2023/11/01 05:12:19;;;;;;;;;6.75;3.75;;;;;;;;5051809;28;8935;-82
2023/11/01 05:14:47;;;;;;;;;2.50;2.50;;;;;;;;5052317;28;8862;-82
2023/11/01 05:17:15;;;;;;;;;2.00;2.00;;;;;;;;5038780;28;8923;-82
2023/11/01 05:19:43;;;;;;;;;3.00;3.00;;;;;;;;5050100;28;8968;-82
2023/11/01 05:22:11;;;;;;;;;4.50;2.00;;;;;;;;5047959;28;8857;-84
2023/11/01 05:24:38;;;;;;;;;2.75;2.75;;;;;;;;5036159;28;8882;-86
2023/11/01 05:27:07;;;;;;;;;7.50;1.75;;;;;;;;5027490;28;8860;-84
2023/11/01 05:29:34;;;;;;;;;3.25;2.75;;;;;;;;5028984;28;8879;-90
2023/11/01 05:32:01;;;;;;;;;1.50;1.00;;;;;;;;5063166;28;8880;-90
2023/11/01 05:34:30;;;;;;;;;4.50;3.00;;;;;;;;5068586;28;9618;-86
2023/11/01 05:36:57;;;;;;;;;5.25;4.00;;;;;;;;5068490;28;8851;-85
2023/11/01 05:39:25;;;;;;;;;1.25;1.25;;;;;;;;5066548;28;8985;-83
2023/11/01 05:41:52;;;;;;;;;2.25;2.25;;;;;;;;5067686;28;8835;-86
2023/11/01 05:44:22;;;;;;;;;3.75;2.50;;;;;;;;5067030;28;8866;-89
2023/11/01 05:46:52;;;;;;;;;2.75;2.00;;;;;;;;5056261;28;8886;-83
2023/11/01 05:49:20;;;;;;;;;2.50;2.25;;;;;;;;5065861;28;8877;-83
2023/11/01 05:51:51;;;;;;;;;2.00;2.00;;;;;;;;5065902;28;8932;-84
2023/11/01 05:54:21;;;;;;;;;2.00;2.00;;;;;;;;5064260;28;8926;-84
2023/11/01 05:56:49;;;;;;;;;3.50;3.50;;;;;;;;5067770;28;8888;-82
2023/11/01 05:59:16;;;;;;;;;2.75;2.75;;;;;;;;5067083;28;8858;-82
2023/11/01 06:01:43;;;;;;;;;3.50;1.25;;;;;;;;5067229;28;8811;-82
2023/11/01 06:04:11;;;;;;;;;1.75;1.25;;;;;;;;5066057;28;8859;-84
2023/11/01 06:06:38;;;;;;;;;1.75;1.75;;;;;;;;5067476;28;8858;-82
2023/11/01 06:09:06;;;;;;;;;1.00;1.00;;;;;;;;5067200;28;8875;-83
2023/11/01 06:11:34;;;;;;;;;2.00;2.00;;;;;;;;5070364;28;8855;-84
2023/11/01 06:14:02;;;;;;;;;1.00;1.00;;;;;;;;5071434;28;8870;-85
2023/11/01 06:16:29;;;;;;;;;2.00;2.00;;;;;;;;5059666;28;8830;-83
2023/11/01 06:18:56;;;;;;;;;2.50;1.00;;;;;;;;5070337;28;8861;-81
2023/11/01 06:21:24;;;;;;;;;2.00;2.00;;;;;;;;5070985;28;9020;-90
2023/11/01 06:23:51;;;;;;;;;1.75;1.00;;;;;;;;5069763;28;8874;-83
2023/11/01 06:26:20;;;;;;;;;1.00;1.00;;;;;;;;5070020;28;8871;-82
2023/11/01 06:28:47;;;;;;;;;2.00;2.00;;;;;;;;5063597;28;8881;-84
2023/11/01 06:31:16;;;;;;;;;1.50;1.50;;;;;;;;5063824;28;8801;-85
2023/11/01 06:33:43;;;;;;;;;1.50;1.50;;;;;;;;5070785;28;8867;-82
2023/11/01 06:36:11;;;;;;;;;2.00;2.00;;;;;;;;5069956;28;8896;-85
2023/11/01 06:38:38;;;;;;;;;1.00;1.00;;;;;;;;5069521;28;8859;-84
2023/11/01 06:41:07;;;;;;;;;2.00;2.00;;;;;;;;5069504;28;8859;-81
2023/11/01 06:43:35;;;;;;;;;3.25;2.00;;;;;;;;5070463;28;8862;-82
2023/11/01 06:46:03;;;;;;;;;2.75;2.75;;;;;;;;5071071;28;9694;-78
2023/11/01 06:48:30;;;;;;;;;2.00;2.00;;;;;;;;5076733;28;8851;-77
2023/11/01 06:50:57;;;;;;;;;2.75;2.00;;;;;;;;5070576;28;8847;-79
2023/11/01 06:53:24;;;;;;;;;2.00;1.75;;;;;;;;5071995;28;8870;-78
2023/11/01 06:55:52;;;;;;;;;1.25;1.25;;;;;;;;5072265;28;8870;-79
2023/11/01 06:58:22;;;;;;;;;1.00;1.00;;;;;;;;5073885;28;8843;-79
2023/11/01 07:00:53;;;;;;;;;1.00;1.00;;;;;;;;5072342;28;8804;-80
2023/11/01 07:03:21;;;;;;;;;1.50;1.50;;;;;;;;5073556;28;8876;-78
2023/11/01 07:05:48;;;;;;;;;4.00;2.00;;;;;;;;5071438;28;8867;-80
2023/11/01 07:08:15;;;;;;;;;3.00;3.00;;;;;;;;5069163;28;8877;-77
2023/11/01 07:10:42;;;;;;;;;2.00;2.00;;;;;;;;5066316;28;8952;-76
2023/11/01 07:13:11;;;;;;;;;2.00;2.00;;;;;;;;5068748;28;8858;-77
2023/11/01 07:15:38;;;;;;;;;2.00;2.00;;;;;;;;5062520;28;8865;-78
2023/11/01 07:18:07;;;;;;;;;1.50;1.50;;;;;;;;5060940;28;8854;-77
2023/11/01 07:20:35;;;;;;;;;1.00;1.00;;;;;;;;5068801;28;8847;-77
2023/11/01 07:23:04;;;;;;;;;1.00;1.00;;;;;;;;5068643;28;9636;-78
2023/11/01 07:25:35;;;;;;;;;1.00;1.00;;;;;;;;5068591;28;8870;-78
2023/11/01 07:28:02;;;;;;;;;4.00;2.00;;;;;;;;5067774;28;9008;-79
2023/11/01 07:30:29;;;;;;;;;1.00;1.00;;;;;;;;5068193;28;8787;-78
2023/11/01 07:32:56;;;;;;;;;1.50;1.50;;;;;;;;5069838;28;8968;-79
2023/11/01 07:35:25;;;;;;;;;3.25;2.25;;;;;;;;5071690;28;9558;-78
2023/11/01 07:37:52;;;;;;;;;1.00;1.00;;;;;;;;5067661;28;8868;-78
2023/11/01 07:40:19;;;;;;;;;1.75;1.75;;;;;;;;5068307;28;8866;-76
2023/11/01 07:42:46;;;;;;;;;2.75;2.00;;;;;;;;5068121;28;8880;-76
2023/11/01 07:45:14;;;;;;;;;3.00;1.50;;;;;;;;5066764;28;8888;-75
2023/11/01 07:47:41;;;;;;;;;1.00;1.00;;;;;;;;5068143;28;8845;-76
2023/11/01 07:50:09;;;;;;;;;1.25;1.25;;;;;;;;5068244;28;8851;-76
2023/11/01 07:52:39;;;;;;;;;3.00;1.00;;;;;;;;5068039;28;8954;-76
2023/11/01 07:55:07;;;;;;;;;1.25;0.75;;;;;;;;5067922;28;8855;-75
2023/11/01 07:57:34;;;;;;;;;2.00;1.00;;;;;;;;5067438;28;8842;-76
2023/11/01 08:00:05;;;;;;;;;1.75;1.75;;;;;;;;5067844;28;8877;-75
2023/11/01 08:02:32;;;;;;;;;3.00;1.50;;;;;;;;5067626;28;8867;-76
2023/11/01 08:04:59;;;;;;;;;1.25;1.25;;;;;;;;5067820;28;8858;-76
2023/11/01 08:07:27;;;;;;;;;2.00;0.50;;;;;;;;5066444;28;8882;-76
2023/11/01 08:09:55;;;;;;;;;1.75;1.75;;;;;;;;5067157;28;8943;-76
2023/11/01 08:12:22;;;;;;;;;1.25;1.25;;;;;;;;5067242;28;8866;-77
2023/11/01 08:14:50;;;;;;;;;1.25;1.25;;;;;;;;5068369;28;8858;-76
2023/11/01 08:17:17;;;;;;;;;2.25;2.00;;;;;;;;5055000;28;8897;-76
2023/11/01 08:19:45;;;;;;;;;1.75;1.75;;;;;;;;5068138;28;8874;-76
2023/11/01 08:22:13;;;;;;;;;1.00;1.00;;;;;;;;5067992;28;8867;-76
2023/11/01 08:24:40;;;;;;;;;1.75;1.75;;;;;;;;5067701;28;8846;-75
2023/11/01 08:27:08;;;;;;;;;1.00;1.00;;;;;;;;5067318;28;8870;-75
2023/11/01 08:29:37;;;;;;;;;2.25;1.00;;;;;;;;5068068;28;8863;-76
2023/11/01 08:32:06;;;;;;;;;1.00;1.00;;;;;;;;5067171;28;8803;-75
2023/11/01 08:34:33;;;;;;;;;3.50;3.00;;;;;;;;5067090;28;8871;-76
2023/11/01 08:37:00;;;;;;;;;2.75;1.00;;;;;;;;5055998;28;8839;-75
2023/11/01 08:39:28;;;;;;;;;1.25;1.25;;;;;;;;5067988;28;8882;-75
2023/11/01 08:41:58;;;;;;;;;2.75;2.75;;;;;;;;5071409;28;8853;-75
2023/11/01 08:44:26;;;;;;;;;1.00;1.00;;;;;;;;5072951;28;8858;-76
2023/11/01 08:46:54;;;;;;;;;1.75;1.75;;;;;;;;5073001;28;8881;-75
2023/11/01 08:49:21;;;;;;;;;3.50;1.25;;;;;;;;5071808;28;8973;-76
2023/11/01 08:51:49;;;;;;;;;2.50;1.75;;;;;;;;5072653;28;8876;-76
2023/11/01 08:54:16;;;;;;;;;1.50;1.50;;;;;;;;5066198;28;8851;-75
2023/11/01 08:56:43;;;;;;;;;3.50;1.25;;;;;;;;5066605;28;8879;-75
2023/11/01 08:59:10;;;;;;;;;2.00;2.00;;;;;;;;5065283;28;9012;-76
2023/11/01 09:01:40;;;;;;;;;2.00;2.00;;;;;;;;5066235;28;8799;-76
2023/11/01 09:04:09;;;;;;;;;5.00;3.25;;;;;;;;5066559;28;8865;-75
2023/11/01 09:06:37;;;;;;;;;2.00;2.00;;;;;;;;5067336;28;8855;-75
2023/11/01 09:09:05;;;;;;;;;1.00;1.00;;;;;;;;5066199;28;8885;-74
2023/11/01 09:11:32;;;;;;;;;2.50;1.50;;;;;;;;5067282;28;8842;-75
2023/11/01 09:13:59;;;;;;;;;1.25;1.25;;;;;;;;5066958;28;8850;-77
2023/11/01 09:16:26;;;;;;;;;0.00;0.00;;;;;;;;5066153;28;8864;-77
2023/11/01 09:18:56;;;;;;;;;1.50;1.50;;;;;;;;5067007;28;8988;-78
2023/11/01 09:21:23;;;;;;;;;1.00;1.00;;;;;;;;5068348;28;8858;-78
2023/11/01 09:23:50;;;;;;;;;0.75;0.75;;;;;;;;5068537;28;8854;-76
2023/11/01 09:26:18;;;;;;;;;0.25;0.25;;;;;;;;5068259;28;8859;-78
2023/11/01 09:28:45;;;;;;;;;1.00;1.00;;;;;;;;5068969;28;8891;-79
2023/11/01 09:31:12;;;;;;;;;0.75;0.75;;;;;;;;5065823;28;9573;-76
2023/11/01 09:33:39;;;;;;;;;0.25;0.25;;;;;;;;5066546;28;8838;-78
2023/11/01 09:36:13;;;;;;;;;1.75;0.75;;;;;;;;5066342;28;8866;-76
2023/11/01 09:38:41;;;;;;;;;2.00;0.00;;;;;;;;5062882;28;8850;-76
2023/11/01 09:41:08;;;;;;;;;1.75;0.75;;;;;;;;5065838;28;8858;-76
2023/11/01 09:43:36;;;;;;;;;1.00;1.00;;;;;;;;5066824;28;8873;-76
2023/11/01 09:46:04;;;;;;;;;1.00;0.50;;;;;;;;5069563;28;8920;-76
2023/11/01 09:48:32;;;;;;;;;1.75;1.75;;;;;;;;5070652;28;8823;-76
2023/11/01 09:51:03;;;;;;;;;1.00;1.00;;;;;;;;5070268;28;9023;-77
2023/11/01 09:53:32;;;;;;;;;4.25;0.00;;;;;;;;5071223;28;8877;-78
2023/11/01 09:55:59;;;;;;;;;1.00;0.00;;;;;;;;5057798;28;8851;-77
2023/11/01 09:58:27;;;;;;;;;1.00;1.00;;;;;;;;5074210;28;8857;-78
2023/11/01 10:00:58;;;;;;;;;1.00;1.00;;;;;;;;5072865;28;8855;-75
2023/11/01 10:03:25;;;;;;;;;1.00;1.00;;;;;;;;5070831;28;8935;-79
2023/11/01 10:05:52;;;;;;;;;1.50;1.50;;;;;;;;5070210;28;8863;-74
2023/11/01 10:08:22;;;;;;;;;2.50;1.25;;;;;;;;5069828;28;8890;-77
2023/11/01 10:10:51;;;;;;;;;1.00;1.00;;;;;;;;5070211;28;8847;-75
2023/11/01 10:13:19;;;;;;;;;0.00;0.00;;;;;;;;5069615;28;8874;-76
2023/11/01 10:15:49;;;;;;;;;2.00;2.00;;;;;;;;5070045;28;8863;-75
2023/11/01 10:18:16;;;;;;;;;0.25;0.25;;;;;;;;5069807;28;9244;-81
2023/11/01 10:20:44;;;;;;;;;1.25;1.25;;;;;;;;5057515;28;8869;-79
2023/11/01 10:23:11;;;;;;;;;0.00;0.00;;;;;;;;5069549;28;9618;-77
2023/11/01 10:25:38;;;;;;;;;1.25;1.25;;;;;;;;5071596;28;8866;-77
2023/11/01 10:28:12;;;;;;;;;0.00;0.00;;;;;;;;5073664;28;8819;-79
2023/11/01 10:30:45;;;;;;;;;0.75;0.75;;;;;;;;5072957;28;8859;-79
2023/11/01 10:33:14;;;;;;;;;3.00;1.00;;;;;;;;5072570;28;8835;-80
2023/11/01 10:35:41;;;;;;;;;5.00;1.00;;;;;;;;5073930;28;8871;-78
2023/11/01 10:38:09;;;;;;;;;1.25;1.25;;;;;;;;5060248;28;8971;-76
2023/11/01 10:40:37;;;;;;;;;1.00;1.00;;;;;;;;5072436;28;8959;-77
2023/11/01 10:43:04;;;;;;;;;1.00;1.00;;;;;;;;5069364;28;8881;-77
2023/11/01 10:45:35;;;;;;;;;4.50;1.00;;;;;;;;5070446;28;8977;-77
2023/11/01 10:48:03;;;;;;;;;2.75;1.25;;;;;;;;5069398;28;8843;-76
2023/11/01 10:50:33;;;;;;;;;0.75;0.75;;;;;;;;5069888;28;8851;-77
2023/11/01 10:53:08;;;;;;;;;0.25;0.25;;;;;;;;5056048;28;8911;-77
2023/11/01 10:55:36;;;;;;;;;0.75;0.75;;;;;;;;5069039;28;8871;-77
2023/11/01 10:58:05;;;;;;;;;1.00;1.00;;;;;;;;5061417;28;8930;-77
2023/11/01 11:00:43;;;;;;;;;1.00;1.00;;;;;;;;5063972;28;8870;-77
2023/11/01 11:03:18;;;;;;;;;0.50;0.50;;;;;;;;5069144;28;8857;-77
2023/11/01 11:05:45;;;;;;;;;1.00;1.00;;;;;;;;5069189;28;8854;-78
2023/11/01 11:08:12;;;;;;;;;0.25;0.25;;;;;;;;5069076;28;8843;-77
2023/11/01 11:10:43;;;;;;;;;1.00;1.00;;;;;;;;5069224;28;8862;-77
2023/11/01 11:13:34;;;;;;;;;2.00;1.00;;;;;;;;5069246;28;8969;-78
2023/11/01 11:16:03;;;;;;;;;4.00;1.00;;;;;;;;5063590;28;8851;-78
2023/11/01 11:18:57;;;;;;;;;0.50;0.25;;;;;;;;5068840;28;8847;-78
2023/11/01 11:22:02;;;;;;;;;2.00;2.00;;;;;;;;5068879;28;9649;-78
2023/11/01 11:24:57;;;;;;;;;2.25;1.75;;;;;;;;5060904;28;8823;-78
2023/11/01 11:27:49;;;;;;;;;0.75;0.75;;;;;;;;5068854;28;8977;-78
2023/11/01 11:30:18;;;;;;;;;1.00;1.00;;;;;;;;5068214;28;8873;-78
2023/11/01 11:32:48;;;;;;;;;0.00;0.00;;;;;;;;5056031;28;8876;-78
2023/11/01 11:35:22;;;;;;;;;2.75;2.00;;;;;;;;5068076;28;8847;-77
2023/11/01 11:37:54;;;;;;;;;3.00;1.75;;;;;;;;5068401;28;8866;-78
2023/11/01 11:40:25;;;;;;;;;2.75;1.25;;;;;;;;5068740;28;8878;-78
2023/11/01 11:42:55;;;;;;;;;0.00;0.00;;;;;;;;5068399;28;8893;-78
2023/11/01 11:45:27;;;;;;;;;1.50;1.00;;;;;;;;5067805;28;8863;-77
2023/11/01 11:47:56;;;;;;;;;1.00;1.00;;;;;;;;5067604;28;8866;-78
2023/11/01 11:50:23;;;;;;;;;2.00;2.00;;;;;;;;5068299;28;8854;-78
2023/11/01 11:52:50;;;;;;;;;1.00;1.00;;;;;;;;5068283;28;8835;-78
2023/11/01 11:55:18;;;;;;;;;1.50;1.00;;;;;;;;5067850;28;9614;-77
2023/11/01 11:57:45;;;;;;;;;1.00;1.00;;;;;;;;5067856;28;8835;-77
2023/11/01 12:00:13;;;;;;;;;2.00;1.25;;;;;;;;5067912;28;8858;-78
2023/11/01 12:02:40;;;;;;;;;1.00;1.00;;;;;;;;5068304;28;9714;-77
2023/11/01 12:05:09;;;;;;;;;0.75;0.75;;;;;;;;5067891;28;8968;-77
2023/11/01 12:07:43;;;;;;;;;0.25;0.00;;;;;;;;5067969;28;8834;-77
2023/11/01 12:10:13;;;;;;;;;1.00;1.00;;;;;;;;5068801;28;8877;-78
2023/11/01 12:12:40;;;;;;;;;0.75;0.75;;;;;;;;5069455;28;8847;-77
2023/11/01 12:15:08;;;;;;;;;1.00;0.00;;;;;;;;5070443;28;8965;-77
2023/11/01 12:17:37;;;;;;;;;1.00;1.00;;;;;;;;5070610;28;8936;-77
2023/11/01 12:20:05;;;;;;;;;0.25;0.25;;;;;;;;5056358;28;8915;-77
2023/11/01 12:22:43;;;;;;;;;1.00;1.00;;;;;;;;5071316;28;8881;-78
2023/11/01 12:25:10;;;;;;;;;1.00;1.00;;;;;;;;5067799;28;8928;-78
2023/11/01 12:27:39;;;;;;;;;1.00;1.00;;;;;;;;5068242;28;8969;-78
2023/11/01 12:30:07;;;;;;;;;1.00;1.00;;;;;;;;5067409;28;8867;-78
2023/11/01 12:32:38;;;;;;;;;1.00;1.00;;;;;;;;5067754;28;8866;-78
2023/11/01 12:35:06;;;;;;;;;2.00;2.00;;;;;;;;5067206;28;8838;-78
2023/11/01 12:37:34;;;;;;;;;3.00;2.00;;;;;;;;5067548;28;8863;-78
2023/11/01 12:40:07;;;;;;;;;1.75;1.75;;;;;;;;5067604;28;8851;-78
2023/11/01 12:42:35;;;;;;;;;1.25;1.25;;;;;;;;5067404;28;8862;-78
2023/11/01 12:45:03;;;;;;;;;1.00;1.00;;;;;;;;5067545;28;8838;-79
2023/11/01 12:47:41;;;;;;;;;1.50;1.00;;;;;;;;5067544;28;8831;-78
2023/11/01 12:50:09;;;;;;;;;1.00;1.00;;;;;;;;5067146;28;8883;-78
2023/11/01 12:52:37;;;;;;;;;1.00;1.00;;;;;;;;5067319;28;9641;-78
2023/11/01 12:55:08;;;;;;;;;2.00;2.00;;;;;;;;5067195;28;8869;-78
2023/11/01 12:57:36;;;;;;;;;0.75;0.75;;;;;;;;5067195;28;8865;-78
2023/11/01 13:00:08;;;;;;;;;0.50;0.50;;;;;;;;5067222;28;9663;-78
2023/11/01 13:02:35;;;;;;;;;1.50;1.50;;;;;;;;5067180;28;8839;-78
2023/11/01 13:05:06;;;;;;;;;2.00;2.00;;;;;;;;5067890;28;8839;-78
2023/11/01 13:07:37;;;;;;;;;1.50;1.50;;;;;;;;5067320;28;8874;-78
2023/11/01 13:10:10;;;;;;;;;1.00;1.00;;;;;;;;5067058;28;8977;-78
2023/11/01 13:12:37;;;;;;;;;1.00;1.00;;;;;;;;5066301;28;8854;-78
2023/11/01 13:15:04;;;;;;;;;1.75;1.75;;;;;;;;5066935;28;8881;-78
2023/11/01 13:17:36;;;;;;;;;1.00;1.00;;;;;;;;5059601;28;8871;-78
2023/11/01 13:20:04;;;;;;;;;1.00;1.00;;;;;;;;5048861;28;8988;-77
2023/11/01 13:22:31;;;;;;;;;1.25;1.00;;;;;;;;5060377;28;8863;-78
2023/11/01 13:24:59;;;;;;;;;1.00;1.00;;;;;;;;5071089;28;8854;-78
2023/11/01 13:27:28;;;;;;;;;1.50;0.75;;;;;;;;5071540;28;9251;-78
2023/11/01 13:29:55;;;;;;;;;1.75;1.75;;;;;;;;5070786;28;9677;-78
2023/11/01 13:32:22;;;;;;;;;1.25;1.25;;;;;;;;5071166;28;8880;-78
2023/11/01 13:34:50;;;;;;;;;0.75;0.75;;;;;;;;5070479;28;8867;-78
2023/11/01 13:37:23;;;;;;;;;1.00;1.00;;;;;;;;5060904;28;8903;-78
2023/11/01 13:39:50;;;;;;;;;3.00;1.00;;;;;;;;5068068;28;8866;-78
2023/11/01 13:42:19;;;;;;;;;4.50;2.00;;;;;;;;5070428;28;8882;-78
2023/11/01 13:44:48;;;;;;;;;1.75;1.25;;;;;;;;5070707;28;8862;-78
2023/11/01 13:47:15;;;;;;;;;1.00;1.00;;;;;;;;5070194;28;8846;-78
2023/11/01 13:49:42;;;;;;;;;1.00;1.00;;;;;;;;5070368;28;8889;-78
2023/11/01 13:52:11;;;;;;;;;2.00;2.00;;;;;;;;5070338;28;9608;-78
2023/11/01 13:54:38;;;;;;;;;2.00;2.00;;;;;;;;5070776;28;8851;-78
2023/11/01 13:57:05;;;;;;;;;1.00;1.00;;;;;;;;5071266;28;9741;-78
2023/11/01 13:59:38;;;;;;;;;4.00;1.25;;;;;;;;5072957;28;8893;-79
2023/11/01 14:02:07;;;;;;;;;2.75;1.25;;;;;;;;5072913;28;8861;-79
2023/11/01 14:04:34;;;;;;;;;1.75;1.00;;;;;;;;5073967;28;8870;-79
2023/11/01 14:07:01;;;;;;;;;2.00;2.00;;;;;;;;5073250;28;8872;-78
2023/11/01 14:09:29;;;;;;;;;2.25;1.00;;;;;;;;5074775;28;8882;-79
2023/11/01 14:11:57;;;;;;;;;3.00;1.00;;;;;;;;5070094;28;8964;-79
2023/11/01 14:14:25;;;;;;;;;2.00;0.75;;;;;;;;5070166;28;8869;-79
2023/11/01 14:16:53;;;;;;;;;3.25;2.25;;;;;;;;5069721;28;8905;-79
2023/11/01 14:19:21;;;;;;;;;2.25;2.25;;;;;;;;5070103;28;8851;-79
2023/11/01 14:21:51;;;;;;;;;1.00;1.00;;;;;;;;5070244;28;8902;-79
2023/11/01 14:24:19;;;;;;;;;1.50;1.50;;;;;;;;5070053;28;8965;-79
2023/11/01 14:26:46;;;;;;;;;2.00;2.00;;;;;;;;5069833;28;8831;-78
2023/11/01 14:29:13;;;;;;;;;3.50;1.50;;;;;;;;5069412;28;8873;-79
2023/11/01 14:31:41;;;;;;;;;3.75;1.75;;;;;;;;5068299;28;8965;-78
2023/11/01 14:34:10;;;;;;;;;0.00;0.00;;;;;;;;5069590;28;8920;-79
2023/11/01 14:36:39;;;;;;;;;2.00;1.00;;;;;;;;5069656;28;8958;-79
2023/11/01 14:39:06;;;;;;;;;0.75;0.75;;;;;;;;5069484;28;8858;-78
2023/11/01 14:41:35;;;;;;;;;2.75;1.00;;;;;;;;5069843;28;8965;-78
2023/11/01 14:44:03;;;;;;;;;0.75;0.75;;;;;;;;5069818;28;9005;-79
2023/11/01 14:46:30;;;;;;;;;1.00;1.00;;;;;;;;5069886;28;8846;-78
2023/11/01 14:48:58;;;;;;;;;2.00;2.00;;;;;;;;5069473;28;8851;-78
2023/11/01 14:51:25;;;;;;;;;1.00;1.00;;;;;;;;5069405;28;9010;-78
2023/11/01 14:53:54;;;;;;;;;3.00;1.00;;;;;;;;5069459;28;9642;-78
2023/11/01 14:56:21;;;;;;;;;1.25;1.00;;;;;;;;5069457;28;8847;-79
2023/11/01 14:58:49;;;;;;;;;1.25;1.25;;;;;;;;5069032;28;8843;-78
2023/11/01 15:01:16;;;;;;;;;0.25;0.25;;;;;;;;5068974;28;8863;-78
2023/11/01 15:03:43;;;;;;;;;1.00;1.00;;;;;;;;5069180;28;8861;-79
2023/11/01 15:06:10;;;;;;;;;1.50;1.50;;;;;;;;5068885;28;9637;-78